Time;durP1;ratioP1;P1;durP2;ratioP2;P2;SDS_P1;SDS_P2;PMS_P1;PMS_P2;Temp;Humidity;BMP_temperature;BMP_pressure;BME280_temperature;BME280_humidity;BME280_pressure;Samples;Min_cycle;Max_cycle;Signal;HPM_P1;HPM_P2
2023/03/04 00:01:28;;;;;;;;;46.00;39.50;;;;;4.27;100.00;102158.66;5093572;27;45441;-82
2023/03/04 00:03:54;;;;;;;;;56.25;43.75;;;;;4.19;100.00;102150.41;5085910;27;45236;-82
2023/03/04 00:06:19;;;;;;;;;50.50;42.00;;;;;4.24;100.00;102171.16;5094194;27;46981;-82
2023/03/04 00:08:44;;;;;;;;;48.75;41.50;;;;;4.23;100.00;102180.00;5084405;27;45642;-81
2023/03/04 00:11:10;;;;;;;;;52.75;43.00;;;;;3.98;100.00;102134.19;5089083;27;45546;-81
2023/03/04 00:13:35;;;;;;;;;57.50;49.00;;;;;4.15;100.00;102165.56;5098753;27;45330;-81
2023/03/04 00:16:00;;;;;;;;;65.50;50.00;;;;;4.15;100.00;102177.84;5097318;27;45724;-81
2023/03/04 00:18:26;;;;;;;;;69.00;52.75;;;;;4.06;100.00;102160.00;5098246;27;46745;-81
2023/03/04 00:20:51;;;;;;;;;59.25;48.75;;;;;4.00;100.00;102163.88;5099384;27;45269;-81
2023/03/04 00:23:17;;;;;;;;;63.75;52.75;;;;;3.88;100.00;102147.91;5098277;27;46412;-81
2023/03/04 00:25:42;;;;;;;;;64.00;52.00;;;;;3.99;100.00;102177.97;5099474;27;45420;-81
2023/03/04 00:28:08;;;;;;;;;59.75;48.50;;;;;3.95;100.00;102181.75;5099340;27;45203;-81
2023/03/04 00:30:33;;;;;;;;;60.75;49.75;;;;;3.89;100.00;102180.34;5103551;27;47008;-81
2023/03/04 00:32:58;;;;;;;;;57.75;47.00;;;;;3.82;100.00;102174.59;5102937;27;48782;-81
2023/03/04 00:35:24;;;;;;;;;56.00;47.50;;;;;3.71;100.00;102167.34;5102631;27;45435;-81
2023/03/04 00:37:50;;;;;;;;;50.75;44.50;;;;;3.85;100.00;102189.34;5101575;27;45610;-81
2023/03/04 00:40:15;;;;;;;;;58.25;45.25;;;;;3.78;100.00;102183.63;5102888;27;45425;-81
2023/03/04 00:42:41;;;;;;;;;59.25;48.25;;;;;3.63;100.00;102167.00;5103048;27;45462;-81
2023/03/04 00:45:08;;;;;;;;;49.00;42.50;;;;;3.73;100.00;102191.78;5102643;27;46395;-82
2023/03/04 00:47:33;;;;;;;;;59.50;49.25;;;;;3.63;100.00;102183.63;5101236;27;45831;-81
2023/03/04 00:49:58;;;;;;;;;58.00;46.00;;;;;3.58;100.00;102183.03;5102611;27;45535;-81
2023/03/04 00:52:23;;;;;;;;;56.25;45.50;;;;;3.51;99.91;102179.09;5101012;27;50808;-81
2023/03/04 00:54:50;;;;;;;;;59.75;48.00;;;;;3.44;100.00;102180.41;5100859;27;57227;-81
2023/03/04 00:57:15;;;;;;;;;60.50;48.50;;;;;3.41;100.00;102181.41;5101170;27;46293;-81
2023/03/04 00:59:42;;;;;;;;;57.25;46.50;;;;;3.41;100.00;102192.78;5101352;27;46054;-81
2023/03/04 01:02:08;;;;;;;;;55.00;44.50;;;;;3.44;100.00;102193.53;5101111;27;46221;-81
2023/03/04 01:04:33;;;;;;;;;58.25;46.00;;;;;3.22;100.00;102166.75;5101947;27;46540;-80
2023/03/04 01:06:59;;;;;;;;;55.50;46.75;;;;;3.28;100.00;102178.66;5100839;27;48175;-81
2023/03/04 01:09:25;;;;;;;;;50.75;43.75;;;;;3.28;100.00;102176.91;5102374;27;45322;-81
2023/03/04 01:11:51;;;;;;;;;52.25;44.50;;;;;3.43;100.00;102197.94;5102382;27;45462;-81
2023/03/04 01:14:17;;;;;;;;;48.50;40.50;;;;;3.45;100.00;102201.34;5102387;27;45299;-81
2023/03/04 01:16:42;;;;;;;;;54.00;45.00;;;;;3.47;100.00;102204.72;5102270;27;45362;-81
2023/03/04 01:19:08;;;;;;;;;58.50;47.00;;;;;3.42;100.00;102193.63;5102272;27;45249;-81
2023/03/04 01:21:33;;;;;;;;;55.75;47.50;;;;;3.48;100.00;102201.16;5100577;27;46994;-81
2023/03/04 01:23:58;;;;;;;;;50.25;44.25;;;;;3.55;100.00;102206.88;5101750;27;45318;-81
2023/03/04 01:26:24;;;;;;;;;58.75;45.00;;;;;3.58;100.00;102201.44;5102018;27;45286;-81
2023/03/04 01:28:53;;;;;;;;;53.50;45.25;;;;;3.57;100.00;102210.28;5102081;27;45159;-81
2023/03/04 01:31:18;;;;;;;;;59.75;49.75;;;;;3.59;100.00;102199.69;5100646;27;46369;-81
2023/03/04 01:33:43;;;;;;;;;57.25;45.50;;;;;3.54;100.00;102186.81;5101724;27;47865;-81
2023/03/04 01:36:08;;;;;;;;;46.50;39.00;;;;;3.60;100.00;102191.69;5102052;27;45431;-81
2023/03/04 01:38:34;;;;;;;;;54.75;43.75;;;;;3.60;100.00;102196.94;5101871;27;45398;-81
2023/03/04 01:40:59;;;;;;;;;55.25;44.25;;;;;3.63;100.00;102196.78;5101025;27;46751;-81
2023/03/04 01:43:28;;;;;;;;;44.50;35.75;;;;;3.51;100.00;102173.84;5101755;27;45468;-81
2023/03/04 01:45:55;;;;;;;;;61.25;48.00;;;;;3.59;100.00;102187.34;5101843;27;45210;-81
2023/03/04 01:48:28;;;;;;;;;58.50;47.00;;;;;3.59;100.00;102189.97;5100741;27;45354;-81
2023/03/04 01:50:53;;;;;;;;;61.25;45.00;;;;;3.52;100.00;102175.53;5101878;27;45363;-81
2023/03/04 01:53:22;;;;;;;;;56.50;45.00;;;;;3.56;100.00;102184.91;5100126;27;50502;-81
2023/03/04 01:55:48;;;;;;;;;50.25;42.25;;;;;3.57;100.00;102186.63;5100507;27;45385;-81
2023/03/04 01:58:14;;;;;;;;;57.00;46.75;;;;;3.49;100.00;102180.97;5100315;27;45389;-81
2023/03/04 02:00:40;;;;;;;;;55.25;42.75;;;;;3.41;100.00;102174.38;5100012;27;47100;-81
2023/03/04 02:03:13;;;;;;;;;55.00;45.25;;;;;3.40;100.00;102179.72;5101241;27;46071;-81
2023/03/04 02:05:43;;;;;;;;;59.75;47.00;;;;;3.34;100.00;102170.44;5099823;27;45353;-81
2023/03/04 02:08:10;;;;;;;;;54.00;45.50;;;;;3.21;100.00;102151.94;5100009;27;45398;-81
2023/03/04 02:10:35;;;;;;;;;57.50;45.25;;;;;3.20;100.00;102157.28;5101628;27;45228;-81
2023/03/04 02:13:02;;;;;;;;;57.50;45.25;;;;;3.25;100.00;102163.09;5101156;27;46433;-81
2023/03/04 02:15:29;;;;;;;;;47.50;43.00;;;;;3.24;100.00;102174.53;5100162;27;45310;-81
2023/03/04 02:17:54;;;;;;;;;55.75;42.75;;;;;3.17;100.00;102165.34;5099677;27;45477;-80
2023/03/04 02:20:29;;;;;;;;;47.50;39.00;;;;;3.11;100.00;102171.78;5099889;27;47176;-81
2023/03/04 02:23:29;;;;;;;;;57.25;48.00;;;;;2.95;100.00;102149.03;5103591;27;48197;-81
2023/03/04 02:26:27;;;;;;;;;50.25;42.50;;;;;2.87;100.00;102156.50;5099883;27;45250;-81
2023/03/04 02:28:54;;;;;;;;;58.75;47.75;;;;;2.78;100.00;102148.22;5098453;27;45292;-81
2023/03/04 02:31:31;;;;;;;;;57.00;45.75;;;;;2.83;100.00;102165.50;5080516;27;45448;-81
2023/03/04 02:34:03;;;;;;;;;52.25;46.25;;;;;2.74;100.00;102157.22;5097405;27;47116;-81
2023/03/04 02:36:29;;;;;;;;;61.00;48.00;;;;;2.76;100.00;102157.13;5101015;27;45330;-82
2023/03/04 02:39:01;;;;;;;;;59.75;48.00;;;;;2.75;100.00;102161.53;5100677;27;45307;-81
2023/03/04 02:41:29;;;;;;;;;63.00;50.75;;;;;2.82;100.00;102172.53;5099811;27;47463;-81
2023/03/04 02:43:55;;;;;;;;;59.50;49.50;;;;;2.70;100.00;102144.34;5099321;27;48566;-81
2023/03/04 02:46:22;;;;;;;;;66.75;51.25;;;;;2.69;100.00;102145.28;5100688;27;45373;-81
2023/03/04 02:48:48;;;;;;;;;57.75;46.75;;;;;2.62;100.00;102137.75;5099642;27;45362;-81
2023/03/04 02:51:13;;;;;;;;;57.50;46.00;;;;;2.68;100.00;102149.69;5099201;27;47515;-81
2023/03/04 02:53:39;;;;;;;;;54.25;44.75;;;;;2.61;100.00;102143.09;5099339;27;46866;-81
2023/03/04 02:56:04;;;;;;;;;59.00;46.00;;;;;2.70;100.00;102160.97;5099496;27;45687;-81
2023/03/04 02:58:30;;;;;;;;;51.00;42.75;;;;;2.37;100.00;102102.38;5093636;27;45314;-80
2023/03/04 03:00:56;;;;;;;;;58.00;45.75;;;;;2.65;100.00;102150.72;5091697;27;46923;-81
2023/03/04 03:03:21;;;;;;;;;57.00;47.00;;;;;2.59;100.00;102137.94;5099365;27;47064;-81
2023/03/04 03:05:46;;;;;;;;;63.75;49.25;;;;;2.65;100.00;102149.88;5100432;27;52010;-80
2023/03/04 03:08:12;;;;;;;;;54.00;45.25;;;;;2.65;100.00;102144.59;5100701;27;45649;-81
2023/03/04 03:10:37;;;;;;;;;51.00;43.25;;;;;2.56;100.00;102130.22;5099062;27;45909;-81
2023/03/04 03:13:02;;;;;;;;;60.00;51.00;;;;;2.46;100.00;102122.03;5100196;27;46686;-80
2023/03/04 03:15:28;;;;;;;;;59.25;48.25;;;;;2.57;100.00;102142.41;5099306;27;45298;-80
2023/03/04 03:17:53;;;;;;;;;56.00;43.50;;;;;2.62;100.00;102150.03;5100091;27;45185;-80
2023/03/04 03:20:19;;;;;;;;;57.50;47.00;;;;;2.51;100.00;102140.13;5113211;27;48067;-80
2023/03/04 03:22:45;;;;;;;;;58.75;47.25;;;;;2.44;100.00;102129.16;5099434;27;48190;-80
2023/03/04 03:25:13;;;;;;;;;61.25;50.50;;;;;2.47;100.00;102134.22;5100207;27;45460;-80
2023/03/04 03:27:38;;;;;;;;;57.50;48.00;;;;;2.51;100.00;102151.50;5098680;27;45334;-80
2023/03/04 03:30:05;;;;;;;;;48.00;41.50;;;;;2.46;100.00;102140.41;5100050;27;45507;-80
2023/03/04 03:32:31;;;;;;;;;58.25;47.25;;;;;2.38;100.00;102125.09;5098011;27;47349;-80
2023/03/04 03:34:56;;;;;;;;;61.75;48.50;;;;;2.45;100.00;102141.31;5100115;27;45172;-79
2023/03/04 03:37:21;;;;;;;;;59.75;47.00;;;;;2.35;100.00;102124.41;5098206;27;49272;-80
2023/03/04 03:39:47;;;;;;;;;52.00;43.75;;;;;2.35;100.00;102130.50;5098912;27;46102;-79
2023/03/04 03:42:12;;;;;;;;;61.00;50.50;;;;;2.30;100.00;102131.72;5099578;27;45550;-79
2023/03/04 03:44:37;;;;;;;;;62.25;49.25;;;;;2.33;100.00;102134.16;5098550;27;45468;-80
2023/03/04 03:47:03;;;;;;;;;60.25;49.75;;;;;2.31;100.00;102121.13;5097597;27;45206;-79
2023/03/04 03:49:28;;;;;;;;;55.00;46.50;;;;;2.34;100.00;102134.03;5098623;27;46115;-80
2023/03/04 03:51:54;;;;;;;;;57.25;46.75;;;;;2.35;100.00;102138.38;5099248;27;52437;-80
2023/03/04 03:54:19;;;;;;;;;63.75;50.75;;;;;2.29;100.00;102140.50;5098645;27;45839;-80
2023/03/04 03:56:45;;;;;;;;;60.00;48.75;;;;;2.23;100.00;102125.94;5099724;27;45344;-80
2023/03/04 03:59:10;;;;;;;;;53.75;45.50;;;;;2.23;100.00;102120.69;5099917;27;45392;-80
2023/03/04 04:01:36;;;;;;;;;62.50;51.25;;;;;2.32;100.00;102145.56;5099570;27;45467;-79
2023/03/04 04:04:01;;;;;;;;;63.75;48.50;;;;;2.27;100.00;102143.19;5100888;27;45322;-79
2023/03/04 04:06:26;;;;;;;;;61.25;50.75;;;;;2.24;100.00;102157.34;5102156;27;45337;-80
2023/03/04 04:08:52;;;;;;;;;61.50;50.75;;;;;2.16;100.00;102145.56;5102159;27;47110;-80
2023/03/04 04:11:17;;;;;;;;;58.25;49.00;;;;;2.10;100.00;102137.09;5101786;27;47875;-79
2023/03/04 04:13:43;;;;;;;;;61.50;51.00;;;;;1.91;100.00;102115.44;5103439;27;45298;-79
2023/03/04 04:16:09;;;;;;;;;56.50;47.25;;;;;2.09;100.00;102153.78;5102911;27;48112;-80
2023/03/04 04:18:34;;;;;;;;;63.25;52.50;;;;;1.83;100.00;102113.25;5102014;27;46022;-80
2023/03/04 04:20:59;;;;;;;;;62.00;51.00;;;;;2.03;100.00;102156.72;5102721;27;46110;-80
2023/03/04 04:23:25;;;;;;;;;62.00;49.75;;;;;2.08;100.00;102162.59;5103418;27;45156;-80
2023/03/04 04:25:50;;;;;;;;;63.75;50.75;;;;;1.95;100.00;102148.44;5101521;27;45437;-80
2023/03/04 04:28:15;;;;;;;;;63.50;51.00;;;;;1.92;100.00;102136.34;5101762;27;49984;-80
2023/03/04 04:30:41;;;;;;;;;64.75;49.75;;;;;1.98;100.00;102159.59;5100998;27;47548;-80
2023/03/04 04:33:06;;;;;;;;;61.25;46.75;;;;;1.94;100.00;102152.00;5103131;27;45396;-80
2023/03/04 04:35:33;;;;;;;;;65.25;52.25;;;;;2.00;100.00;102162.13;5102709;27;45363;-80
2023/03/04 04:37:59;;;;;;;;;64.75;51.25;;;;;1.94;100.00;102152.81;5102889;27;45490;-80
2023/03/04 04:40:24;;;;;;;;;62.25;51.50;;;;;1.95;100.00;102159.75;5102775;27;45547;-80
2023/03/04 04:42:49;;;;;;;;;61.25;49.75;;;;;1.96;100.00;102166.72;5101185;27;56888;-80
2023/03/04 04:45:15;;;;;;;;;61.00;51.25;;;;;2.00;100.00;102172.63;5101243;27;46023;-80
2023/03/04 04:47:41;;;;;;;;;64.75;51.50;;;;;1.90;100.00;102153.94;5102810;27;45341;-80
2023/03/04 04:50:07;;;;;;;;;61.00;50.50;;;;;1.87;100.00;102152.31;5102554;27;45372;-80
2023/03/04 04:52:32;;;;;;;;;65.75;51.00;;;;;1.86;100.00;102160.28;5102685;27;45417;-80
2023/03/04 04:54:57;;;;;;;;;59.00;45.25;;;;;1.85;100.00;102161.19;5101452;27;45264;-80
2023/03/04 04:57:23;;;;;;;;;63.50;49.50;;;;;1.79;100.00;102166.78;5100931;27;60715;-80
2023/03/04 04:59:48;;;;;;;;;62.00;47.25;;;;;1.82;100.00;102182.34;5101049;27;47340;-80
2023/03/04 05:02:14;;;;;;;;;59.75;50.25;;;;;1.72;100.00;102172.34;5102665;27;45449;-80
2023/03/04 05:04:39;;;;;;;;;63.50;50.00;;;;;1.74;100.00;102180.13;5088919;27;45531;-80
2023/03/04 05:07:04;;;;;;;;;59.75;50.00;;;;;1.74;100.00;102177.50;5102391;27;45405;-80
2023/03/04 05:09:29;;;;;;;;;67.50;52.25;;;;;2.00;100.00;102173.47;5100882;27;48262;-80
2023/03/04 05:11:55;;;;;;;;;62.75;50.75;;;;;1.62;100.00;102163.25;5101018;27;54819;-80
2023/03/04 05:14:20;;;;;;;;;60.75;49.75;;;;;1.63;100.00;102178.06;5102364;27;45224;-80
2023/03/04 05:16:45;;;;;;;;;59.75;48.00;;;;;1.63;100.00;102183.28;5100817;27;47416;-80
2023/03/04 05:19:11;;;;;;;;;58.50;48.75;;;;;1.50;100.00;102170.81;5100857;27;47468;-80
2023/03/04 05:21:36;;;;;;;;;64.00;51.50;;;;;1.64;100.00;102193.69;5102265;27;45210;-80
2023/03/04 05:24:01;;;;;;;;;62.75;50.75;;;;;1.61;100.00;102200.88;5089147;27;45255;-80
2023/03/04 05:26:27;;;;;;;;;59.75;47.25;;;;;1.60;100.00;102207.03;5100061;27;46934;-79
2023/03/04 05:28:52;;;;;;;;;60.50;50.75;;;;;1.57;100.00;102200.19;5099852;27;45272;-80
2023/03/04 05:31:17;;;;;;;;;59.50;47.25;;;;;1.57;100.00;102209.81;5090494;27;45370;-80
2023/03/04 05:33:43;;;;;;;;;61.75;48.00;;;;;1.53;100.00;102201.28;5098851;27;46051;-79
2023/03/04 05:36:08;;;;;;;;;57.25;48.25;;;;;1.45;100.00;102185.09;5089184;27;45957;-79
2023/03/04 05:38:34;;;;;;;;;62.25;47.50;;;;;1.53;100.00;102198.66;5100527;27;47485;-80
2023/03/04 05:41:05;;;;;;;;;62.00;50.75;;;;;1.45;100.00;102191.19;5100845;27;45957;-80
2023/03/04 05:43:34;;;;;;;;;52.00;44.75;;;;;1.51;100.00;102198.75;5102042;27;45482;-80
2023/03/04 05:45:59;;;;;;;;;58.50;47.75;;;;;1.45;100.00;102190.31;5100388;27;46265;-79
2023/03/04 05:48:25;;;;;;;;;52.75;43.00;;;;;1.32;100.00;102172.59;5101728;27;45438;-78
2023/03/04 05:50:55;;;;;;;;;62.75;49.50;;;;;1.54;100.00;102210.81;5100314;27;45326;-78
2023/03/04 05:53:20;;;;;;;;;64.50;53.25;;;;;1.54;100.00;102213.44;5101860;27;45211;-79
2023/03/04 05:55:46;;;;;;;;;65.50;49.75;;;;;1.43;100.00;102192.19;5100638;27;46998;-80
2023/03/04 05:58:12;;;;;;;;;67.50;52.50;;;;;1.57;100.00;102221.16;5101377;27;46454;-81
2023/03/04 06:00:37;;;;;;;;;62.25;48.00;;;;;1.61;100.00;102225.31;5101722;27;45280;-81
2023/03/04 06:03:02;;;;;;;;;71.25;55.00;;;;;1.60;100.00;102222.75;5100248;27;45371;-81
2023/03/04 06:05:28;;;;;;;;;64.00;49.50;;;;;1.57;100.00;102213.28;5101468;27;45325;-80
2023/03/04 06:07:53;;;;;;;;;63.00;49.25;;;;;1.56;100.00;102205.50;5101289;27;45357;-80
2023/03/04 06:10:19;;;;;;;;;58.50;49.50;;;;;1.68;100.00;102223.25;5101571;27;45333;-80
2023/03/04 06:12:44;;;;;;;;;67.25;53.00;;;;;1.68;100.00;102217.13;5099965;27;45383;-81
2023/03/04 06:15:11;;;;;;;;;59.50;48.50;;;;;1.56;100.00;102201.09;5101233;27;45292;-81
2023/03/04 06:17:38;;;;;;;;;65.00;53.75;;;;;1.58;100.00;102209.75;5099585;27;47963;-81
2023/03/04 06:20:05;;;;;;;;;68.50;54.25;;;;;1.63;100.00;102226.09;5099172;27;45653;-81
2023/03/04 06:22:31;;;;;;;;;67.25;52.50;;;;;1.64;100.00;102219.06;5099705;27;45456;-80
2023/03/04 06:24:56;;;;;;;;;63.25;50.00;;;;;1.69;100.00;102231.94;5099247;27;47223;-81
2023/03/04 06:27:21;;;;;;;;;72.25;56.75;;;;;1.74;100.00;102240.41;5100460;27;46575;-79
2023/03/04 06:29:47;;;;;;;;;69.50;54.00;;;;;1.66;100.00;102224.22;5090555;27;45656;-81
2023/03/04 06:32:12;;;;;;;;;69.50;55.25;;;;;1.77;100.00;102229.78;5096980;27;45470;-81
2023/03/04 06:34:37;;;;;;;;;65.75;51.50;;;;;1.53;100.00;102179.47;5101250;27;45472;-81
2023/03/04 06:37:03;;;;;;;;;57.75;48.75;;;;;1.91;100.00;102242.16;5099201;27;47199;-80
2023/03/04 06:39:28;;;;;;;;;68.25;54.00;;;;;1.91;100.00;102230.84;5101059;27;45241;-81
2023/03/04 06:41:54;;;;;;;;;74.00;56.25;;;;;1.95;100.00;102229.72;5100991;27;45799;-79
2023/03/04 06:44:19;;;;;;;;;63.50;53.50;;;;;1.97;100.00;102228.72;5101591;27;45696;-82
2023/03/04 06:46:44;;;;;;;;;68.75;56.25;;;;;1.98;100.00;102222.53;5099644;27;47570;-82
2023/03/04 06:49:10;;;;;;;;;66.50;53.00;;;;;2.04;100.00;102239.75;5099936;27;45882;-79
2023/03/04 06:51:35;;;;;;;;;73.00;53.75;;;;;1.96;100.00;102226.19;5100415;27;45325;-80
2023/03/04 06:54:01;;;;;;;;;67.50;53.75;;;;;2.09;100.00;102242.09;5100539;27;53503;-79
2023/03/04 06:56:26;;;;;;;;;52.75;42.75;;;;;2.02;100.00;102233.72;5100578;27;46647;-79
2023/03/04 06:58:52;;;;;;;;;66.75;52.50;;;;;1.98;100.00;102226.97;5099625;27;45787;-81
2023/03/04 07:01:19;;;;;;;;;68.25;54.25;;;;;2.05;100.00;102230.94;5098516;27;45899;-81
2023/03/04 07:03:45;;;;;;;;;69.00;55.00;;;;;2.09;100.00;102242.97;5088984;27;47173;-80
2023/03/04 07:06:13;;;;;;;;;62.25;52.00;;;;;2.10;100.00;102243.81;5099316;27;45263;-80
2023/03/04 07:08:38;;;;;;;;;61.25;51.00;;;;;2.18;100.00;102264.41;5097253;27;45402;-79
2023/03/04 07:11:04;;;;;;;;;64.00;52.25;;;;;2.23;100.00;102252.72;5089284;27;45438;-78
2023/03/04 07:13:29;;;;;;;;;62.00;52.00;;;;;2.28;100.00;102263.00;5091360;27;45502;-79
2023/03/04 07:15:55;;;;;;;;;66.75;55.50;;;;;2.26;100.00;102252.56;5096578;27;45384;-79
2023/03/04 07:18:20;;;;;;;;;64.00;52.50;;;;;2.32;100.00;102261.88;5100503;27;45380;-79
2023/03/04 07:20:45;;;;;;;;;79.50;63.25;;;;;2.33;100.00;102260.94;5087570;27;45538;-80
2023/03/04 07:23:11;;;;;;;;;111.33;101.00;;;;;2.35;100.00;102256.47;5100647;27;57008;-80
2023/03/04 07:25:36;;;;;;;;;92.25;71.50;;;;;2.43;100.00;102270.97;5098860;27;47050;-80
2023/03/04 07:28:02;;;;;;;;;72.75;55.75;;;;;2.45;100.00;102259.44;5100809;27;46543;-81
2023/03/04 07:30:27;;;;;;;;;72.75;55.25;;;;;2.26;100.00;102231.59;5098565;27;45482;-80
2023/03/04 07:32:52;;;;;;;;;62.75;50.75;;;;;2.44;100.00;102239.38;5100673;27;45406;-81
2023/03/04 07:35:18;;;;;;;;;63.50;53.00;;;;;2.53;100.00;102253.78;5099744;27;46634;-81
2023/03/04 07:37:43;;;;;;;;;70.25;56.50;;;;;2.60;100.00;102257.75;5097822;27;45302;-81
2023/03/04 07:40:09;;;;;;;;;80.75;63.00;;;;;2.63;100.00;102262.84;5098785;27;45940;-81
2023/03/04 07:42:34;;;;;;;;;77.00;57.75;;;;;2.59;100.00;102256.06;5099867;27;45251;-81
2023/03/04 07:45:00;;;;;;;;;73.50;59.50;;;;;2.66;100.00;102267.06;5098284;27;47023;-81
2023/03/04 07:47:26;;;;;;;;;72.50;57.50;;;;;2.76;100.00;102277.94;5098653;27;46119;-77
2023/03/04 07:49:52;;;;;;;;;74.50;61.00;;;;;2.82;100.00;102284.63;5098918;27;45300;-76
2023/03/04 07:52:17;;;;;;;;;80.50;64.50;;;;;2.87;100.00;102277.31;5099214;27;45530;-77
2023/03/04 07:54:43;;;;;;;;;85.00;67.25;;;;;2.89;100.00;102276.31;5099080;27;46126;-77
2023/03/04 07:57:08;;;;;;;;;70.50;56.25;;;;;2.97;100.00;102272.41;5095210;27;45248;-77
2023/03/04 07:59:34;;;;;;;;;72.00;56.50;;;;;3.07;100.00;102276.22;5099951;27;45265;-77
2023/03/04 08:01:59;;;;;;;;;73.25;55.00;;;;;3.10;100.00;102262.03;5098259;27;46406;-76
2023/03/04 08:04:24;;;;;;;;;78.50;57.25;;;;;3.21;100.00;102280.69;5099900;27;45329;-76
2023/03/04 08:06:50;;;;;;;;;68.75;56.00;;;;;3.30;100.00;102278.47;5097713;27;45928;-77
2023/03/04 08:09:15;;;;;;;;;69.50;56.75;;;;;3.38;100.00;102282.31;5098366;27;45427;-77
2023/03/04 08:11:42;;;;;;;;;68.50;56.00;;;;;3.44;100.00;102289.00;5099879;27;45412;-77
2023/03/04 08:14:08;;;;;;;;;69.00;57.25;;;;;3.46;100.00;102278.41;5097848;27;45688;-77
2023/03/04 08:16:33;;;;;;;;;73.25;57.25;;;;;3.62;100.00;102288.91;5097127;27;45460;-76
2023/03/04 08:19:01;;;;;;;;;67.25;56.00;;;;;3.81;100.00;102307.06;5099168;27;45337;-77
2023/03/04 08:21:27;;;;;;;;;81.50;63.25;;;;;3.98;100.00;102305.22;5109855;27;45399;-76
2023/03/04 08:23:53;;;;;;;;;77.75;59.25;;;;;4.01;100.00;102284.81;5085857;27;45388;-76
2023/03/04 08:26:32;;;;;;;;;77.25;56.25;;;;;4.23;100.00;102304.56;5089484;27;45364;-77
2023/03/04 08:29:01;;;;;;;;;69.00;55.00;;;;;4.28;100.00;102297.22;5097885;27;45362;-76
2023/03/04 08:31:26;;;;;;;;;76.75;58.00;;;;;4.49;100.00;102310.00;5097926;27;47373;-76
2023/03/04 08:33:52;;;;;;;;;66.75;53.25;;;;;4.50;100.00;102297.69;5099059;27;45319;-77
2023/03/04 08:36:17;;;;;;;;;75.75;58.50;;;;;4.77;100.00;102324.09;5097749;27;50581;-76
2023/03/04 08:38:42;;;;;;;;;66.75;52.75;;;;;4.87;100.00;102307.69;5099395;27;46065;-77
2023/03/04 08:41:08;;;;;;;;;63.50;50.00;;;;;5.04;100.00;102317.16;5097950;27;46272;-77
2023/03/04 08:43:34;;;;;;;;;65.00;53.75;;;;;5.02;100.00;102295.31;5098854;27;45273;-77
2023/03/04 08:45:59;;;;;;;;;66.50;52.50;;;;;5.23;100.00;102315.94;5098463;27;45457;-77
2023/03/04 08:48:25;;;;;;;;;56.50;45.00;;;;;5.37;100.00;102317.69;5078547;27;45338;-77
2023/03/04 08:50:51;;;;;;;;;64.00;51.75;;;;;5.39;100.00;102305.25;5089596;27;46489;-77
2023/03/04 08:53:17;;;;;;;;;57.75;44.75;;;;;5.56;100.00;102307.63;5102689;27;46276;-78
2023/03/04 08:55:43;;;;;;;;;67.50;52.50;;;;;5.74;100.00;102309.09;5101503;27;45267;-77
2023/03/04 08:58:09;;;;;;;;;57.25;46.75;;;;;5.83;100.00;102299.75;5098919;27;45252;-77
2023/03/04 09:00:37;;;;;;;;;65.50;48.00;;;;;5.96;100.00;102311.16;5089885;27;46321;-78
2023/03/04 09:03:03;;;;;;;;;61.00;49.75;;;;;6.01;100.00;102318.75;5102260;27;45341;-78
2023/03/04 09:05:30;;;;;;;;;59.50;48.00;;;;;6.00;100.00;102298.59;5102218;27;46082;-78
2023/03/04 09:07:56;;;;;;;;;59.75;47.75;;;;;6.05;100.00;102294.69;5101017;27;45308;-77
2023/03/04 09:10:21;;;;;;;;;60.75;50.75;;;;;6.14;100.00;102301.13;5102294;27;45295;-77
2023/03/04 09:12:46;;;;;;;;;59.00;50.00;;;;;6.21;100.00;102303.34;5102182;27;45360;-78
2023/03/04 09:15:12;;;;;;;;;62.50;48.50;;;;;6.23;100.00;102312.88;5102405;27;46977;-78
2023/03/04 09:17:38;;;;;;;;;65.00;52.00;;;;;6.28;100.00;102308.09;5101692;27;45398;-77
2023/03/04 09:20:04;;;;;;;;;63.50;50.50;;;;;6.42;100.00;102324.78;5102252;27;45384;-77
2023/03/04 09:22:30;;;;;;;;;64.00;50.00;;;;;6.49;100.00;102327.84;5101648;27;46962;-77
2023/03/04 09:24:55;;;;;;;;;56.50;46.25;;;;;6.46;100.00;102314.88;5102222;27;45295;-77
2023/03/04 09:27:20;;;;;;;;;60.25;46.75;;;;;6.49;100.00;102312.00;5101943;27;45483;-77
2023/03/04 09:29:46;;;;;;;;;59.25;47.75;;;;;6.63;100.00;102324.22;5101705;27;52082;-78
2023/03/04 09:32:11;;;;;;;;;56.25;45.00;;;;;6.67;100.00;102325.69;5101291;27;46266;-77
2023/03/04 09:34:36;;;;;;;;;52.00;43.25;;;;;6.72;100.00;102325.34;5101990;27;45321;-77
2023/03/04 09:37:02;;;;;;;;;60.00;47.25;;;;;6.67;100.00;102315.97;5100649;27;45487;-77
2023/03/04 09:39:27;;;;;;;;;53.25;44.50;;;;;6.82;100.00;102331.66;5102058;27;45383;-77
2023/03/04 09:41:57;;;;;;;;;55.25;44.25;;;;;6.82;100.00;102323.75;5101703;27;46520;-77
2023/03/04 09:44:31;;;;;;;;;60.00;46.75;;;;;6.83;100.00;102309.59;5098532;27;45301;-78
2023/03/04 09:46:59;;;;;;;;;61.00;46.50;;;;;6.93;100.00;102323.84;5097348;27;45278;-77
2023/03/04 09:49:26;;;;;;;;;58.00;47.00;;;;;7.01;100.00;102328.56;5093142;27;46387;-77
2023/03/04 09:52:10;;;;;;;;;57.25;45.75;;;;;7.10;100.00;102323.56;5101035;27;45360;-76
2023/03/04 09:54:47;;;;;;;;;61.50;47.50;;;;;7.11;100.00;102328.72;5100292;27;45374;-76
2023/03/04 09:57:21;;;;;;;;;54.00;44.25;;;;;7.24;100.00;102331.31;5087917;27;45357;-77
2023/03/04 10:00:08;;;;;;;;;53.50;45.50;;;;;7.31;100.00;102340.47;5101458;27;45298;-76
2023/03/04 10:03:08;;;;;;;;;62.00;50.75;;;;;7.34;100.00;102347.38;5100863;27;45362;-76
2023/03/04 10:05:53;;;;;;;;;54.50;44.50;;;;;7.29;100.00;102331.84;5091307;27;45355;-76
2023/03/04 10:08:39;;;;;;;;;58.00;46.25;;;;;7.40;99.75;102324.91;5101151;27;45437;-76
2023/03/04 10:11:29;;;;;;;;;52.50;41.25;;;;;7.58;99.66;102341.22;5099989;27;46215;-76
2023/03/04 10:14:13;;;;;;;;;60.50;47.75;;;;;7.65;99.26;102336.28;5101481;27;45712;-76
2023/03/04 10:16:44;;;;;;;;;63.00;49.00;;;;;7.72;99.14;102331.38;5098714;27;45314;-77
2023/03/04 10:19:39;;;;;;;;;55.50;45.75;;;;;7.67;98.21;102316.69;5090519;27;45324;-77
2023/03/04 10:22:38;;;;;;;;;58.50;46.00;;;;;7.80;97.94;102321.91;5100621;27;45288;-77
2023/03/04 10:25:20;;;;;;;;;52.25;44.00;;;;;7.86;97.69;102332.97;5087874;27;45718;-77
2023/03/04 10:28:11;;;;;;;;;55.50;45.25;;;;;7.89;97.51;102316.84;5101388;27;45345;-76
2023/03/04 10:30:47;;;;;;;;;57.50;45.75;;;;;7.96;97.42;102326.84;5100777;27;45340;-78
2023/03/04 10:33:15;;;;;;;;;61.00;48.25;;;;;7.98;96.35;102313.50;5099365;27;45539;-76
2023/03/04 10:35:47;;;;;;;;;61.75;48.00;;;;;8.07;96.71;102314.59;5099484;27;48234;-76
2023/03/04 10:38:14;;;;;;;;;53.75;44.75;;;;;8.11;96.33;102300.16;5100830;27;45428;-76
2023/03/04 10:40:41;;;;;;;;;55.75;42.75;;;;;8.25;96.86;102304.38;5101143;27;45287;-77
2023/03/04 10:43:14;;;;;;;;;50.50;41.00;;;;;8.30;96.72;102304.88;5100289;27;45455;-77
2023/03/04 10:45:39;;;;;;;;;58.25;45.50;;;;;8.41;96.33;102305.81;5100404;27;46304;-76
2023/03/04 10:48:16;;;;;;;;;56.50;44.25;;;;;8.50;96.06;102309.56;5100565;27;45333;-75
2023/03/04 10:50:41;;;;;;;;;56.75;45.00;;;;;8.22;94.91;102256.94;5100999;27;45358;-75
2023/03/04 10:53:24;;;;;;;;;51.25;43.00;;;;;8.56;94.53;102303.81;5080841;27;45357;-76
2023/03/04 10:55:49;;;;;;;;;50.00;40.50;;;;;8.60;94.18;102294.63;5092340;27;46134;-76
2023/03/04 10:58:19;;;;;;;;;52.25;40.00;;;;;8.63;94.34;102286.44;5080212;27;45332;-75
2023/03/04 11:01:23;;;;;;;;;55.25;43.50;;;;;8.74;93.64;102292.69;5094258;27;45683;-75
2023/03/04 11:03:56;;;;;;;;;49.75;41.75;;;;;8.71;92.90;102286.66;5081841;27;45419;-76
2023/03/04 11:06:22;;;;;;;;;51.25;42.50;;;;;8.62;92.97;102265.34;5094130;27;45450;-75
2023/03/04 11:08:56;;;;;;;;;48.50;42.25;;;;;8.80;93.13;102293.00;5100301;27;45320;-75
2023/03/04 11:11:33;;;;;;;;;56.25;46.25;;;;;8.84;92.98;102285.66;5100365;27;45629;-76